sensor_id;sensor_type;location;lat;lon;timestamp;pressure;altitude;pressure_sealevel;temperature;humidity
75938;BME280;64615;32.062;34.834;2023-12-20T00:02:17;101194.66;;;22.57;45.74
75938;BME280;64615;32.062;34.834;2023-12-20T00:04:43;101190.06;;;22.58;45.59
75938;BME280;64615;32.062;34.834;2023-12-20T00:07:08;101190.88;;;22.58;45.55
75938;BME280;64615;32.062;34.834;2023-12-20T00:09:34;101188.41;;;22.57;45.80
75938;BME280;64615;32.062;34.834;2023-12-20T00:11:59;101191.69;;;22.59;45.61
75938;BME280;64615;32.062;34.834;2023-12-20T00:14:25;101187.09;;;22.59;45.60
75938;BME280;64615;32.062;34.834;2023-12-20T00:16:51;101184.38;;;22.59;45.51
75938;BME280;64615;32.062;34.834;2023-12-20T00:19:16;101175.66;;;22.57;45.65
75938;BME280;64615;32.062;34.834;2023-12-20T00:21:42;101169.16;;;22.58;45.60
75938;BME280;64615;32.062;34.834;2023-12-20T00:24:07;101167.28;;;22.59;45.69
75938;BME280;64615;32.062;34.834;2023-12-20T00:26:33;101174.34;;;22.60;45.63
75938;BME280;64615;32.062;34.834;2023-12-20T00:28:59;101175.50;;;22.64;45.52
75938;BME280;64615;32.062;34.834;2023-12-20T00:31:25;101184.22;;;22.66;45.42
75938;BME280;64615;32.062;34.834;2023-12-20T00:33:50;101191.28;;;22.67;45.34
75938;BME280;64615;32.062;34.834;2023-12-20T00:36:16;101183.66;;;22.64;45.53
75938;BME280;64615;32.062;34.834;2023-12-20T00:38:42;101178.72;;;22.61;45.45
75938;BME280;64615;32.062;34.834;2023-12-20T00:41:07;101183.81;;;22.57;45.56
75938;BME280;64615;32.062;34.834;2023-12-20T00:43:33;101177.00;;;22.55;45.63
75938;BME280;64615;32.062;34.834;2023-12-20T00:45:59;101173.47;;;22.54;45.41
75938;BME280;64615;32.062;34.834;2023-12-20T00:48:25;101168.50;;;22.51;45.52
75938;BME280;64615;32.062;34.834;2023-12-20T00:50:52;101168.78;;;22.50;45.52
75938;BME280;64615;32.062;34.834;2023-12-20T00:53:18;101164.41;;;22.49;45.60
75938;BME280;64615;32.062;34.834;2023-12-20T00:55:44;101151.91;;;22.48;45.54
75938;BME280;64615;32.062;34.834;2023-12-20T00:58:10;101147.53;;;22.47;45.45
75938;BME280;64615;32.062;34.834;2023-12-20T01:00:36;101145.09;;;22.45;45.36
75938;BME280;64615;32.062;34.834;2023-12-20T01:03:01;101139.09;;;22.43;45.53
75938;BME280;64615;32.062;34.834;2023-12-20T01:05:27;101139.91;;;22.44;45.63
75938;BME280;64615;32.062;34.834;2023-12-20T01:07:53;101135.56;;;22.43;45.50
75938;BME280;64615;32.062;34.834;2023-12-20T01:10:18;101140.97;;;22.43;45.64
75938;BME280;64615;32.062;34.834;2023-12-20T01:12:44;101144.75;;;22.42;45.78
75938;BME280;64615;32.062;34.834;2023-12-20T01:15:10;101141.22;;;22.41;45.73
75938;BME280;64615;32.062;34.834;2023-12-20T01:17:35;101140.38;;;22.40;45.60
75938;BME280;64615;32.062;34.834;2023-12-20T01:20:01;101138.78;;;22.39;45.69
75938;BME280;64615;32.062;34.834;2023-12-20T01:22:27;101139.56;;;22.40;45.61
75938;BME280;64615;32.062;34.834;2023-12-20T01:24:53;101144.19;;;22.39;45.51
75938;BME280;64615;32.062;34.834;2023-12-20T01:27:18;101139.00;;;22.38;45.59
75938;BME280;64615;32.062;34.834;2023-12-20T01:29:44;101130.03;;;22.37;45.60
75938;BME280;64615;32.062;34.834;2023-12-20T01:32:10;101127.34;;;22.37;45.74
75938;BME280;64615;32.062;34.834;2023-12-20T01:34:35;101125.69;;;22.36;45.59
75938;BME280;64615;32.062;34.834;2023-12-20T01:37:01;101122.97;;;22.36;45.69
75938;BME280;64615;32.062;34.834;2023-12-20T01:39:28;101117.53;;;22.36;45.76
75938;BME280;64615;32.062;34.834;2023-12-20T01:41:53;101114.59;;;22.38;45.70
75938;BME280;64615;32.062;34.834;2023-12-20T01:44:19;101104.28;;;22.40;45.65
75938;BME280;64615;32.062;34.834;2023-12-20T01:46:45;101106.28;;;22.45;45.68
75938;BME280;64615;32.062;34.834;2023-12-20T01:49:12;101103.06;;;22.48;45.53
75938;BME280;64615;32.062;34.834;2023-12-20T01:51:38;101107.44;;;22.49;45.61
75938;BME280;64615;32.062;34.834;2023-12-20T01:54:04;101103.91;;;22.48;45.69
75938;BME280;64615;32.062;34.834;2023-12-20T01:56:31;101103.91;;;22.48;45.46
75938;BME280;64615;32.062;34.834;2023-12-20T01:58:58;101106.38;;;22.50;45.52
75938;BME280;64615;32.062;34.834;2023-12-20T02:01:24;101109.31;;;22.48;45.34
75938;BME280;64615;32.062;34.834;2023-12-20T02:03:50;101109.31;;;22.48;45.44
75938;BME280;64615;32.062;34.834;2023-12-20T02:06:18;101106.63;;;22.48;45.36
75938;BME280;64615;32.062;34.834;2023-12-20T02:08:44;101104.72;;;22.49;45.27
75938;BME280;64615;32.062;34.834;2023-12-20T02:11:10;101119.13;;;22.49;45.27
75938;BME280;64615;32.062;34.834;2023-12-20T02:13:36;101112.88;;;22.49;45.19
75938;BME280;64615;32.062;34.834;2023-12-20T02:16:01;101109.09;;;22.50;45.10
75938;BME280;64615;32.062;34.834;2023-12-20T02:18:28;101112.03;;;22.48;45.13
75938;BME280;64615;32.062;34.834;2023-12-20T02:20:53;101118.28;;;22.49;45.10
75938;BME280;64615;32.062;34.834;2023-12-20T02:23:19;101122.88;;;22.48;45.13
75938;BME280;64615;32.062;34.834;2023-12-20T02:25:45;101120.69;;;22.45;44.86
75938;BME280;64615;32.062;34.834;2023-12-20T02:28:11;101125.28;;;22.45;45.16
75938;BME280;64615;32.062;34.834;2023-12-20T02:30:37;101130.94;;;22.43;45.12
75938;BME280;64615;32.062;34.834;2023-12-20T02:33:03;101130.13;;;22.43;45.04
75938;BME280;64615;32.062;34.834;2023-12-20T02:35:33;101125.75;;;22.42;45.12
75938;BME280;64615;32.062;34.834;2023-12-20T02:37:59;101127.91;;;22.39;45.06
75938;BME280;64615;32.062;34.834;2023-12-20T02:40:24;101124.38;;;22.39;45.15
75938;BME280;64615;32.062;34.834;2023-12-20T02:42:50;101118.59;;;22.35;45.11
75938;BME280;64615;32.062;34.834;2023-12-20T02:45:16;101114.84;;;22.36;45.38
75938;BME280;64615;32.062;34.834;2023-12-20T02:47:41;101113.19;;;22.35;45.12
75938;BME280;64615;32.062;34.834;2023-12-20T02:50:07;101117.00;;;22.34;45.09
75938;BME280;64615;32.062;34.834;2023-12-20T02:52:33;101119.69;;;22.34;45.10
75938;BME280;64615;32.062;34.834;2023-12-20T02:54:58;101110.16;;;22.32;45.24
75938;BME280;64615;32.062;34.834;2023-12-20T02:57:24;101107.44;;;22.32;45.12
75938;BME280;64615;32.062;34.834;2023-12-20T02:59:49;101111.22;;;22.31;45.15
75938;BME280;64615;32.062;34.834;2023-12-20T03:02:15;101110.97;;;22.32;45.08
75938;BME280;64615;32.062;34.834;2023-12-20T03:04:41;101098.00;;;22.34;45.05
75938;BME280;64615;32.062;34.834;2023-12-20T03:07:06;101104.72;;;22.32;45.14
75938;BME280;64615;32.062;34.834;2023-12-20T03:09:32;101110.16;;;22.32;45.15
75938;BME280;64615;32.062;34.834;2023-12-20T03:11:57;101107.69;;;22.30;45.06
75938;BME280;64615;32.062;34.834;2023-12-20T03:14:23;101107.94;;;22.29;44.96
75938;BME280;64615;32.062;34.834;2023-12-20T03:16:52;101113.59;;;22.27;45.01
75938;BME280;64615;32.062;34.834;2023-12-20T03:19:18;101120.09;;;22.26;44.91
75938;BME280;64615;32.062;34.834;2023-12-20T03:21:46;101119.28;;;22.26;44.99
75938;BME280;64615;32.062;34.834;2023-12-20T03:24:12;101118.44;;;22.25;44.94
75938;BME280;64615;32.062;34.834;2023-12-20T03:26:37;101130.34;;;22.24;45.03
75938;BME280;64615;32.062;34.834;2023-12-20T03:29:03;101130.34;;;22.24;44.92
75938;BME280;64615;32.062;34.834;2023-12-20T03:31:29;101130.34;;;22.24;44.72
75938;BME280;64615;32.062;34.834;2023-12-20T03:33:54;101138.50;;;22.24;44.60
75938;BME280;64615;32.062;34.834;2023-12-20T03:36:20;101150.75;;;22.27;44.52
75938;BME280;64615;32.062;34.834;2023-12-20T03:38:46;101149.69;;;22.28;44.41
75938;BME280;64615;32.062;34.834;2023-12-20T03:41:11;101160.31;;;22.29;44.22
75938;BME280;64615;32.062;34.834;2023-12-20T03:43:37;101153.78;;;22.30;44.43
75938;BME280;64615;32.062;34.834;2023-12-20T03:46:03;101166.28;;;22.31;44.20
75938;BME280;64615;32.062;34.834;2023-12-20T03:48:30;101175.25;;;22.32;44.22
75938;BME280;64615;32.062;34.834;2023-12-20T03:50:56;101168.16;;;22.31;44.24
75938;BME280;64615;32.062;34.834;2023-12-20T03:53:22;101176.31;;;22.31;44.04
75938;BME280;64615;32.062;34.834;2023-12-20T03:55:48;101179.59;;;22.33;44.09
75938;BME280;64615;32.062;34.834;2023-12-20T03:58:13;101191.28;;;22.33;44.07
75938;BME280;64615;32.062;34.834;2023-12-20T04:00:39;101185.84;;;22.33;44.02
75938;BME280;64615;32.062;34.834;2023-12-20T04:03:04;101194.00;;;22.33;44.03
75938;BME280;64615;32.062;34.834;2023-12-20T04:05:30;101183.97;;;22.34;43.85
75938;BME280;64615;32.062;34.834;2023-12-20T04:07:56;101186.69;;;22.34;43.85
75938;BME280;64615;32.062;34.834;2023-12-20T04:10:21;101182.88;;;22.35;43.96
75938;BME280;64615;32.062;34.834;2023-12-20T04:12:47;101192.34;;;22.32;44.00
75938;BME280;64615;32.062;34.834;2023-12-20T04:15:13;101206.16;;;22.31;44.07
75938;BME280;64615;32.062;34.834;2023-12-20T04:17:38;101206.41;;;22.29;44.08
75938;BME280;64615;32.062;34.834;2023-12-20T04:20:05;101213.72;;;22.29;44.15
75938;BME280;64615;32.062;34.834;2023-12-20T04:22:30;101207.22;;;22.30;43.95
75938;BME280;64615;32.062;34.834;2023-12-20T04:24:56;101209.91;;;22.30;43.88
75938;BME280;64615;32.062;34.834;2023-12-20T04:27:22;101219.97;;;22.29;44.06
75938;BME280;64615;32.062;34.834;2023-12-20T04:29:47;101229.72;;;22.30;44.07
75938;BME280;64615;32.062;34.834;2023-12-20T04:32:13;101234.59;;;22.28;44.03
75938;BME280;64615;32.062;34.834;2023-12-20T04:34:38;101235.66;;;22.27;44.27
75938;BME280;64615;32.062;34.834;2023-12-20T04:37:04;101225.03;;;22.26;44.74
75938;BME280;64615;32.062;34.834;2023-12-20T04:39:30;101226.69;;;22.27;44.56
75938;BME280;64615;32.062;34.834;2023-12-20T04:41:55;101216.06;;;22.25;44.54
75938;BME280;64615;32.062;34.834;2023-12-20T04:44:21;101220.44;;;22.26;44.60
75938;BME280;64615;32.062;34.834;2023-12-20T04:46:47;101219.72;;;22.31;44.07
75938;BME280;64615;32.062;34.834;2023-12-20T04:49:13;101224.31;;;22.30;44.00
75938;BME280;64615;32.062;34.834;2023-12-20T04:51:38;101226.28;;;22.35;44.32
75938;BME280;64615;32.062;34.834;2023-12-20T04:54:04;101226.28;;;22.35;44.51
75938;BME280;64615;32.062;34.834;2023-12-20T04:56:30;101231.63;;;22.30;44.46
75938;BME280;64615;32.062;34.834;2023-12-20T04:58:55;101221.00;;;22.12;39.88
75938;BME280;64615;32.062;34.834;2023-12-20T05:01:21;101221.75;;;21.95;40.91
75938;BME280;64615;32.062;34.834;2023-12-20T05:03:46;101222.09;;;22.27;41.02
75938;BME280;64615;32.062;34.834;2023-12-20T05:06:12;101222.16;;;22.77;41.29
75938;BME280;64615;32.062;34.834;2023-12-20T05:08:38;101221.59;;;22.92;41.50
75938;BME280;64615;32.062;34.834;2023-12-20T05:11:04;101225.84;;;23.05;42.31
75938;BME280;64615;32.062;34.834;2023-12-20T05:13:30;101225.00;;;23.04;41.77
75938;BME280;64615;32.062;34.834;2023-12-20T05:15:55;101232.34;;;23.04;42.65
75938;BME280;64615;32.062;34.834;2023-12-20T05:18:21;101238.13;;;23.07;42.72
75938;BME280;64615;32.062;34.834;2023-12-20T05:20:47;101237.38;;;23.12;42.63
75938;BME280;64615;32.062;34.834;2023-12-20T05:23:13;101233.16;;;23.04;42.71
75938;BME280;64615;32.062;34.834;2023-12-20T05:25:39;101241.97;;;22.95;42.76
75938;BME280;64615;32.062;34.834;2023-12-20T05:28:05;101242.41;;;22.87;42.56
75938;BME280;64615;32.062;34.834;2023-12-20T05:30:31;101246.09;;;22.80;42.71
75938;BME280;64615;32.062;34.834;2023-12-20T05:32:56;101247.69;;;22.76;42.74
75938;BME280;64615;32.062;34.834;2023-12-20T05:35:22;101250.31;;;22.71;42.34
75938;BME280;64615;32.062;34.834;2023-12-20T05:37:49;101246.50;;;22.72;42.43
75938;BME280;64615;32.062;34.834;2023-12-20T05:40:15;101250.03;;;22.73;42.45
75938;BME280;64615;32.062;34.834;2023-12-20T05:42:40;101258.19;;;22.73;42.48
75938;BME280;64615;32.062;34.834;2023-12-20T05:45:06;101264.53;;;22.78;42.18
75938;BME280;64615;32.062;34.834;2023-12-20T05:47:32;101265.66;;;22.83;42.19
75938;BME280;64615;32.062;34.834;2023-12-20T05:49:58;101259.25;;;22.89;42.10
75938;BME280;64615;32.062;34.834;2023-12-20T05:52:24;101250.38;;;22.93;41.87
75938;BME280;64615;32.062;34.834;2023-12-20T05:54:49;101241.97;;;22.95;41.95
75938;BME280;64615;32.062;34.834;2023-12-20T05:57:15;101224.94;;;22.99;41.67
75938;BME280;64615;32.062;34.834;2023-12-20T05:59:40;101225.09;;;23.09;41.13
75938;BME280;64615;32.062;34.834;2023-12-20T06:02:06;101230.03;;;23.12;40.95
75938;BME280;64615;32.062;34.834;2023-12-20T06:04:32;101221.91;;;23.12;40.47
75938;BME280;64615;32.062;34.834;2023-12-20T06:06:58;101227.88;;;23.14;40.60
75938;BME280;64615;32.062;34.834;2023-12-20T06:09:26;101221.63;;;23.14;40.42
75938;BME280;64615;32.062;34.834;2023-12-20T06:11:52;101219.19;;;23.12;40.11
75938;BME280;64615;32.062;34.834;2023-12-20T06:14:17;101212.41;;;23.15;39.69
75938;BME280;64615;32.062;34.834;2023-12-20T06:16:44;101220.31;;;23.16;39.32
75938;BME280;64615;32.062;34.834;2023-12-20T06:19:10;101217.44;;;23.23;39.17
75938;BME280;64615;32.062;34.834;2023-12-20T06:21:36;101221.03;;;23.29;39.43
75938;BME280;64615;32.062;34.834;2023-12-20T06:24:01;101222.19;;;23.33;37.96
75938;BME280;64615;32.062;34.834;2023-12-20T06:26:27;101218.53;;;23.44;37.52
75938;BME280;64615;32.062;34.834;2023-12-20T06:28:53;101220.75;;;23.47;37.01
75938;BME280;64615;32.062;34.834;2023-12-20T06:31:18;101227.84;;;23.48;37.00
75938;BME280;64615;32.062;34.834;2023-12-20T06:33:44;101226.84;;;23.54;36.80
75938;BME280;64615;32.062;34.834;2023-12-20T06:36:13;101225.84;;;23.60;37.03
75938;BME280;64615;32.062;34.834;2023-12-20T06:38:39;101229.34;;;23.60;36.45
75938;BME280;64615;32.062;34.834;2023-12-20T06:41:05;101238.97;;;23.68;36.87
75938;BME280;64615;32.062;34.834;2023-12-20T06:43:31;101229.22;;;23.72;36.70
75938;BME280;64615;32.062;34.834;2023-12-20T06:45:58;101222.47;;;23.75;36.07
75938;BME280;64615;32.062;34.834;2023-12-20T06:48:23;101219.47;;;23.76;36.63
75938;BME280;64615;32.062;34.834;2023-12-20T06:50:49;101218.41;;;23.77;36.55
75938;BME280;64615;32.062;34.834;2023-12-20T06:53:15;101221.13;;;23.77;37.08
75938;BME280;64615;32.062;34.834;2023-12-20T06:55:40;101228.78;;;23.80;37.09
75938;BME280;64615;32.062;34.834;2023-12-20T06:58:06;101219.28;;;23.83;36.96
75938;BME280;64615;32.062;34.834;2023-12-20T07:00:32;101217.97;;;23.85;37.10
75938;BME280;64615;32.062;34.834;2023-12-20T07:02:58;101228.91;;;23.90;36.93
75938;BME280;64615;32.062;34.834;2023-12-20T07:05:24;101226.44;;;23.89;37.19
75938;BME280;64615;32.062;34.834;2023-12-20T07:07:49;101216.97;;;23.91;37.47
75938;BME280;64615;32.062;34.834;2023-12-20T07:10:15;101216.97;;;23.91;37.62
75938;BME280;64615;32.062;34.834;2023-12-20T07:12:41;101227.00;;;23.91;37.53
75938;BME280;64615;32.062;34.834;2023-12-20T07:15:07;101227.31;;;23.94;37.54
75938;BME280;64615;32.062;34.834;2023-12-20T07:17:33;101222.69;;;23.95;37.68
75938;BME280;64615;32.062;34.834;2023-12-20T07:19:59;101232.19;;;23.92;38.23
75938;BME280;64615;32.062;34.834;2023-12-20T07:22:29;101237.13;;;23.95;38.08
75938;BME280;64615;32.062;34.834;2023-12-20T07:24:57;101239.03;;;23.95;38.52
75938;BME280;64615;32.062;34.834;2023-12-20T07:27:23;101227.31;;;23.94;38.23
75938;BME280;64615;32.062;34.834;2023-12-20T07:29:49;101237.38;;;23.94;37.88
75938;BME280;64615;32.062;34.834;2023-12-20T07:32:14;101236.53;;;23.93;38.26
75938;BME280;64615;32.062;34.834;2023-12-20T07:34:40;101233.00;;;23.93;38.05
75938;BME280;64615;32.062;34.834;2023-12-20T07:37:06;101224.78;;;23.88;37.80
75938;BME280;64615;32.062;34.834;2023-12-20T07:39:31;101219.28;;;23.83;37.72
75938;BME280;64615;32.062;34.834;2023-12-20T07:41:57;101223.09;;;23.82;38.15
75938;BME280;64615;32.062;34.834;2023-12-20T07:44:22;101223.59;;;23.79;38.23
75938;BME280;64615;32.062;34.834;2023-12-20T07:46:48;101221.94;;;23.78;38.27
75938;BME280;64615;32.062;34.834;2023-12-20T07:49:14;101220.88;;;23.79;37.71
75938;BME280;64615;32.062;34.834;2023-12-20T07:51:39;101205.88;;;23.76;37.31
75938;BME280;64615;32.062;34.834;2023-12-20T07:54:05;101199.66;;;23.76;37.24
75938;BME280;64615;32.062;34.834;2023-12-20T07:56:30;101206.09;;;23.70;37.60
75938;BME280;64615;32.062;34.834;2023-12-20T07:58:56;101220.47;;;23.65;37.86
75938;BME280;64615;32.062;34.834;2023-12-20T08:01:22;101213.63;;;23.62;38.13
75938;BME280;64615;32.062;34.834;2023-12-20T08:03:49;101207.94;;;23.64;37.77
75938;BME280;64615;32.062;34.834;2023-12-20T08:06:14;101211.16;;;23.61;38.31
75938;BME280;64615;32.062;34.834;2023-12-20T08:08:42;101210.00;;;23.57;38.30
75938;BME280;64615;32.062;34.834;2023-12-20T08:11:08;101205.66;;;23.56;38.98
75938;BME280;64615;32.062;34.834;2023-12-20T08:13:33;101198.84;;;23.53;39.53
75938;BME280;64615;32.062;34.834;2023-12-20T08:15:59;101192.81;;;23.51;38.88
75938;BME280;64615;32.062;34.834;2023-12-20T08:18:25;101206.41;;;23.51;37.78
75938;BME280;64615;32.062;34.834;2023-12-20T08:20:50;101204.50;;;23.52;37.85
75938;BME280;64615;32.062;34.834;2023-12-20T08:23:19;101200.44;;;23.49;38.02
75938;BME280;64615;32.062;34.834;2023-12-20T08:25:46;101193.88;;;23.50;36.33
75938;BME280;64615;32.062;34.834;2023-12-20T08:28:12;101191.16;;;23.50;35.96
75938;BME280;64615;32.062;34.834;2023-12-20T08:30:38;101173.50;;;23.48;36.02
75938;BME280;64615;32.062;34.834;2023-12-20T08:33:04;101191.44;;;23.49;35.87
75938;BME280;64615;32.062;34.834;2023-12-20T08:35:30;101182.38;;;23.43;38.21
75938;BME280;64615;32.062;34.834;2023-12-20T08:37:56;101180.47;;;23.44;37.75
75938;BME280;64615;32.062;34.834;2023-12-20T08:40:21;101170.69;;;23.43;36.66
75938;BME280;64615;32.062;34.834;2023-12-20T08:42:48;101172.00;;;23.40;37.78
75938;BME280;64615;32.062;34.834;2023-12-20T08:45:14;101181.25;;;23.39;37.01
75938;BME280;64615;32.062;34.834;2023-12-20T08:47:39;101168.44;;;23.40;37.00
75938;BME280;64615;32.062;34.834;2023-12-20T08:50:07;101168.16;;;23.36;37.97
75938;BME280;64615;32.062;34.834;2023-12-20T08:52:32;101156.41;;;23.31;36.46
75938;BME280;64615;32.062;34.834;2023-12-20T08:54:58;101159.94;;;23.31;36.22
75938;BME280;64615;32.062;34.834;2023-12-20T08:57:24;101147.41;;;23.30;36.64
75938;BME280;64615;32.062;34.834;2023-12-20T08:59:50;101149.59;;;23.28;37.12
75938;BME280;64615;32.062;34.834;2023-12-20T09:02:16;101131.88;;;23.26;35.80
75938;BME280;64615;32.062;34.834;2023-12-20T09:04:42;101123.19;;;23.23;35.53
75938;BME280;64615;32.062;34.834;2023-12-20T09:07:24;101125.56;;;23.20;36.10
75938;BME280;64615;32.062;34.834;2023-12-20T09:09:50;101108.72;;;23.18;36.04
75938;BME280;64615;32.062;34.834;2023-12-20T09:12:19;101090.44;;;23.13;35.41
75938;BME280;64615;32.062;34.834;2023-12-20T09:14:49;101103.47;;;23.11;36.43
75938;BME280;64615;32.062;34.834;2023-12-20T09:17:16;101091.19;;;23.09;36.88
75938;BME280;64615;32.062;34.834;2023-12-20T09:19:45;101075.19;;;23.07;36.32
75938;BME280;64615;32.062;34.834;2023-12-20T09:22:11;101085.22;;;23.07;36.84
75938;BME280;64615;32.062;34.834;2023-12-20T09:24:37;101082.75;;;23.05;38.15
75938;BME280;64615;32.062;34.834;2023-12-20T09:27:04;101070.22;;;23.04;37.62
75938;BME280;64615;32.062;34.834;2023-12-20T09:29:31;101060.72;;;23.02;38.15
75938;BME280;64615;32.062;34.834;2023-12-20T09:31:56;101063.66;;;23.00;38.35
75938;BME280;64615;32.062;34.834;2023-12-20T09:34:23;101052.00;;;23.00;38.21
75938;BME280;64615;32.062;34.834;2023-12-20T09:36:49;101055.53;;;23.00;38.86
75938;BME280;64615;32.062;34.834;2023-12-20T09:39:19;101049.03;;;23.01;38.79
75938;BME280;64615;32.062;34.834;2023-12-20T09:42:08;101043.34;;;23.03;38.81
75938;BME280;64615;32.062;34.834;2023-12-20T09:44:34;101031.16;;;23.05;39.01
75938;BME280;64615;32.062;34.834;2023-12-20T09:47:02;101029.56;;;23.09;39.34
75938;BME280;64615;32.062;34.834;2023-12-20T09:49:29;101018.25;;;23.17;38.96
75938;BME280;64615;32.062;34.834;2023-12-20T09:51:56;101014.72;;;23.17;39.21
75938;BME280;64615;32.062;34.834;2023-12-20T09:54:22;101011.50;;;23.20;39.25
75938;BME280;64615;32.062;34.834;2023-12-20T09:56:48;100988.63;;;23.16;39.23
75938;BME280;64615;32.062;34.834;2023-12-20T09:59:14;100985.91;;;23.16;38.76
75938;BME280;64615;32.062;34.834;2023-12-20T10:01:41;100982.63;;;23.14;39.14
75938;BME280;64615;32.062;34.834;2023-12-20T10:04:08;100976.38;;;23.13;38.74
75938;BME280;64615;32.062;34.834;2023-12-20T10:06:40;100965.50;;;23.13;38.64
75938;BME280;64615;32.062;34.834;2023-12-20T10:09:06;100941.34;;;23.12;38.65
75938;BME280;64615;32.062;34.834;2023-12-20T10:11:32;100957.06;;;23.10;38.55
75938;BME280;64615;32.062;34.834;2023-12-20T10:14:01;100958.41;;;23.07;38.41
75938;BME280;64615;32.062;34.834;2023-12-20T10:16:27;100953.84;;;23.13;39.65
75938;BME280;64615;32.062;34.834;2023-12-20T10:18:53;100954.66;;;23.13;39.94
75938;BME280;64615;32.062;34.834;2023-12-20T10:21:19;100952.56;;;23.20;41.23
75938;BME280;64615;32.062;34.834;2023-12-20T10:23:45;100949.53;;;23.17;41.70
75938;BME280;64615;32.062;34.834;2023-12-20T10:26:19;100943.91;;;23.23;41.45
75938;BME280;64615;32.062;34.834;2023-12-20T10:28:50;100946.88;;;23.22;41.34
75938;BME280;64615;32.062;34.834;2023-12-20T10:31:45;100943.69;;;23.30;43.33
75938;BME280;64615;32.062;34.834;2023-12-20T10:34:11;100943.38;;;23.27;42.84
75938;BME280;64615;32.062;34.834;2023-12-20T10:36:36;100940.91;;;23.25;42.61
75938;BME280;64615;32.062;34.834;2023-12-20T10:39:02;100940.09;;;23.24;42.39
75938;BME280;64615;32.062;34.834;2023-12-20T10:41:32;100935.19;;;23.21;42.44
75938;BME280;64615;32.062;34.834;2023-12-20T10:44:01;100933.53;;;23.20;42.03
75938;BME280;64615;32.062;34.834;2023-12-20T10:46:28;100934.06;;;23.17;42.34
75938;BME280;64615;32.062;34.834;2023-12-20T10:48:55;100908.28;;;23.20;42.39
75938;BME280;64615;32.062;34.834;2023-12-20T10:51:22;100915.94;;;23.23;42.11
75938;BME280;64615;32.062;34.834;2023-12-20T10:53:48;100913.47;;;23.21;42.22
75938;BME280;64615;32.062;34.834;2023-12-20T10:56:16;100908.56;;;23.18;41.78
75938;BME280;64615;32.062;34.834;2023-12-20T10:58:43;100901.78;;;23.21;40.97
75938;BME280;64615;32.062;34.834;2023-12-20T11:01:12;100897.75;;;23.23;40.03
75938;BME280;64615;32.062;34.834;2023-12-20T11:03:43;100878.44;;;23.25;40.20
75938;BME280;64615;32.062;34.834;2023-12-20T11:11:46;100879.19;;;23.15;39.96
75938;BME280;64615;32.062;34.834;2023-12-20T11:14:23;100864.53;;;23.16;39.70
75938;BME280;64615;32.062;34.834;2023-12-20T11:17:08;100891.44;;;23.18;39.62
75938;BME280;64615;32.062;34.834;2023-12-20T11:19:36;100870.53;;;23.18;39.41
75938;BME280;64615;32.062;34.834;2023-12-20T11:22:04;100861.00;;;23.16;39.31
75938;BME280;64615;32.062;34.834;2023-12-20T11:24:31;100890.63;;;23.17;38.80
75938;BME280;64615;32.062;34.834;2023-12-20T11:27:00;100878.97;;;23.22;38.74
75938;BME280;64615;32.062;34.834;2023-12-20T11:29:35;100883.63;;;23.27;38.16
75938;BME280;64615;32.062;34.834;2023-12-20T11:34:47;100875.72;;;23.25;38.56
75938;BME280;64615;32.062;34.834;2023-12-20T11:37:13;100866.47;;;23.21;38.06
75938;BME280;64615;32.062;34.834;2023-12-20T11:39:38;100866.69;;;23.14;38.76
75938;BME280;64615;32.062;34.834;2023-12-20T11:42:05;100877.06;;;23.49;39.48
75938;BME280;64615;32.062;34.834;2023-12-20T11:44:31;100887.72;;;24.03;39.26
75938;BME280;64615;32.062;34.834;2023-12-20T11:46:58;100903.88;;;23.78;39.19
75938;BME280;64615;32.062;34.834;2023-12-20T11:49:24;100907.06;;;23.64;38.92
75938;BME280;64615;32.062;34.834;2023-12-20T11:51:50;100914.03;;;23.55;39.02
75938;BME280;64615;32.062;34.834;2023-12-20T11:54:16;100913.47;;;23.48;38.85
75938;BME280;64615;32.062;34.834;2023-12-20T11:56:42;100920.97;;;23.41;39.35
75938;BME280;64615;32.062;34.834;2023-12-20T11:59:08;100929.13;;;23.41;39.47
75938;BME280;64615;32.062;34.834;2023-12-20T12:01:34;100934.31;;;23.43;39.38
75938;BME280;64615;32.062;34.834;2023-12-20T12:04:07;100934.56;;;23.41;39.34
75938;BME280;64615;32.062;34.834;2023-12-20T12:06:33;100929.66;;;23.38;39.18
75938;BME280;64615;32.062;34.834;2023-12-20T12:08:59;100931.53;;;23.38;39.33
75938;BME280;64615;32.062;34.834;2023-12-20T12:11:25;100926.59;;;23.35;39.17
75938;BME280;64615;32.062;34.834;2023-12-20T12:13:51;100913.31;;;23.33;38.96
75938;BME280;64615;32.062;34.834;2023-12-20T12:16:17;100918.69;;;23.28;39.40
75938;BME280;64615;32.062;34.834;2023-12-20T12:18:44;100912.44;;;23.28;39.02
75938;BME280;64615;32.062;34.834;2023-12-20T12:21:10;100902.41;;;23.28;38.92
75938;BME280;64615;32.062;34.834;2023-12-20T12:23:43;100903.72;;;23.26;39.13
75938;BME280;64615;32.062;34.834;2023-12-20T12:26:09;100910.78;;;23.27;39.21
75938;BME280;64615;32.062;34.834;2023-12-20T12:28:35;100907.00;;;23.28;38.88
75938;BME280;64615;32.062;34.834;2023-12-20T12:31:00;100901.00;;;23.26;38.94
75938;BME280;64615;32.062;34.834;2023-12-20T12:33:26;100912.94;;;23.24;38.94
75938;BME280;64615;32.062;34.834;2023-12-20T12:35:52;100890.72;;;23.28;38.50
75938;BME280;64615;32.062;34.834;2023-12-20T12:38:22;100901.56;;;23.28;38.79
75938;BME280;64615;32.062;34.834;2023-12-20T12:40:48;100897.16;;;23.21;39.26
75938;BME280;64615;32.062;34.834;2023-12-20T12:43:15;100900.13;;;23.20;39.40
75938;BME280;64615;32.062;34.834;2023-12-20T12:45:40;100898.19;;;23.15;39.44